sensor_id;sensor_type;location;lat;lon;timestamp;temperature;humidity
23124;DHT22;11731;48.592;8.858;2023-09-18T00:00:29;21.10;99.90
23124;DHT22;11731;48.592;8.858;2023-09-18T00:02:59;21.10;99.90
23124;DHT22;11731;48.592;8.858;2023-09-18T00:05:28;21.00;99.90
23124;DHT22;11731;48.592;8.858;2023-09-18T00:07:55;21.00;99.90
23124;DHT22;11731;48.592;8.858;2023-09-18T00:10:22;20.80;99.90
23124;DHT22;11731;48.592;8.858;2023-09-18T00:12:49;20.60;99.90
23124;DHT22;11731;48.592;8.858;2023-09-18T00:15:16;20.50;99.90
23124;DHT22;11731;48.592;8.858;2023-09-18T00:17:43;20.40;99.90
23124;DHT22;11731;48.592;8.858;2023-09-18T00:20:11;20.40;99.90
23124;DHT22;11731;48.592;8.858;2023-09-18T00:22:39;20.50;99.90
23124;DHT22;11731;48.592;8.858;2023-09-18T00:25:06;20.70;99.90
23124;DHT22;11731;48.592;8.858;2023-09-18T00:27:33;20.60;99.90
23124;DHT22;11731;48.592;8.858;2023-09-18T00:30:01;20.30;99.90
23124;DHT22;11731;48.592;8.858;2023-09-18T00:32:28;20.40;99.90
23124;DHT22;11731;48.592;8.858;2023-09-18T00:34:55;20.60;99.90
23124;DHT22;11731;48.592;8.858;2023-09-18T00:37:23;20.80;99.90
23124;DHT22;11731;48.592;8.858;2023-09-18T00:39:50;21.10;99.90
23124;DHT22;11731;48.592;8.858;2023-09-18T00:42:17;21.10;99.90
23124;DHT22;11731;48.592;8.858;2023-09-18T00:44:44;20.90;99.90
23124;DHT22;11731;48.592;8.858;2023-09-18T00:47:12;20.80;99.90
23124;DHT22;11731;48.592;8.858;2023-09-18T00:49:42;21.10;99.90
23124;DHT22;11731;48.592;8.858;2023-09-18T00:52:10;20.80;99.90
23124;DHT22;11731;48.592;8.858;2023-09-18T00:54:39;20.50;99.90
23124;DHT22;11731;48.592;8.858;2023-09-18T00:57:08;20.70;99.90
23124;DHT22;11731;48.592;8.858;2023-09-18T00:59:35;20.90;99.90
23124;DHT22;11731;48.592;8.858;2023-09-18T01:02:02;21.20;99.90
23124;DHT22;11731;48.592;8.858;2023-09-18T01:04:30;21.30;99.90
23124;DHT22;11731;48.592;8.858;2023-09-18T01:06:58;21.30;99.90
23124;DHT22;11731;48.592;8.858;2023-09-18T01:09:26;21.30;99.90
23124;DHT22;11731;48.592;8.858;2023-09-18T01:12:03;21.40;99.90
23124;DHT22;11731;48.592;8.858;2023-09-18T01:14:36;21.30;99.90
23124;DHT22;11731;48.592;8.858;2023-09-18T01:17:04;21.20;99.90
23124;DHT22;11731;48.592;8.858;2023-09-18T01:19:40;21.20;99.90
23124;DHT22;11731;48.592;8.858;2023-09-18T01:22:09;21.20;99.90
23124;DHT22;11731;48.592;8.858;2023-09-18T01:24:38;20.90;99.90
23124;DHT22;11731;48.592;8.858;2023-09-18T01:27:08;20.40;99.90
23124;DHT22;11731;48.592;8.858;2023-09-18T01:29:35;19.40;99.90
23124;DHT22;11731;48.592;8.858;2023-09-18T01:32:03;19.00;99.90
23124;DHT22;11731;48.592;8.858;2023-09-18T01:34:33;19.00;99.90
23124;DHT22;11731;48.592;8.858;2023-09-18T01:37:03;19.10;99.90
23124;DHT22;11731;48.592;8.858;2023-09-18T01:39:32;19.50;99.90
23124;DHT22;11731;48.592;8.858;2023-09-18T01:42:02;19.80;99.90
23124;DHT22;11731;48.592;8.858;2023-09-18T01:44:30;20.20;99.90
23124;DHT22;11731;48.592;8.858;2023-09-18T01:46:59;20.30;99.90
23124;DHT22;11731;48.592;8.858;2023-09-18T01:49:30;20.10;99.90
23124;DHT22;11731;48.592;8.858;2023-09-18T01:51:57;19.80;99.90
23124;DHT22;11731;48.592;8.858;2023-09-18T01:54:24;19.80;99.90
23124;DHT22;11731;48.592;8.858;2023-09-18T01:56:51;19.80;99.90
23124;DHT22;11731;48.592;8.858;2023-09-18T01:59:20;19.70;99.90
23124;DHT22;11731;48.592;8.858;2023-09-18T02:01:47;19.60;99.90
23124;DHT22;11731;48.592;8.858;2023-09-18T02:04:14;19.60;99.90
23124;DHT22;11731;48.592;8.858;2023-09-18T02:06:41;19.80;99.90
23124;DHT22;11731;48.592;8.858;2023-09-18T02:09:08;19.90;99.90
23124;DHT22;11731;48.592;8.858;2023-09-18T02:11:36;19.50;99.90
23124;DHT22;11731;48.592;8.858;2023-09-18T02:14:04;19.50;99.90
23124;DHT22;11731;48.592;8.858;2023-09-18T02:16:33;19.60;99.90
23124;DHT22;11731;48.592;8.858;2023-09-18T02:19:01;20.10;99.90
23124;DHT22;11731;48.592;8.858;2023-09-18T02:21:28;20.50;99.90
23124;DHT22;11731;48.592;8.858;2023-09-18T02:23:55;20.70;99.90
23124;DHT22;11731;48.592;8.858;2023-09-18T02:26:23;21.10;99.90
23124;DHT22;11731;48.592;8.858;2023-09-18T02:28:52;21.20;99.90
23124;DHT22;11731;48.592;8.858;2023-09-18T02:31:19;21.20;99.90
23124;DHT22;11731;48.592;8.858;2023-09-18T02:33:47;21.30;99.90
23124;DHT22;11731;48.592;8.858;2023-09-18T02:36:15;21.20;99.90
23124;DHT22;11731;48.592;8.858;2023-09-18T02:38:41;21.30;99.90
23124;DHT22;11731;48.592;8.858;2023-09-18T02:41:08;21.00;99.90
23124;DHT22;11731;48.592;8.858;2023-09-18T02:43:35;21.20;99.90
23124;DHT22;11731;48.592;8.858;2023-09-18T02:46:03;21.10;99.90
23124;DHT22;11731;48.592;8.858;2023-09-18T02:48:30;20.90;99.90
23124;DHT22;11731;48.592;8.858;2023-09-18T02:50:58;20.90;99.90
23124;DHT22;11731;48.592;8.858;2023-09-18T02:53:25;20.80;99.90
23124;DHT22;11731;48.592;8.858;2023-09-18T02:55:54;20.60;99.90
23124;DHT22;11731;48.592;8.858;2023-09-18T02:58:21;20.40;99.90
23124;DHT22;11731;48.592;8.858;2023-09-18T03:00:52;20.50;99.90
23124;DHT22;11731;48.592;8.858;2023-09-18T03:03:19;20.60;99.90
23124;DHT22;11731;48.592;8.858;2023-09-18T03:05:45;20.50;99.90
23124;DHT22;11731;48.592;8.858;2023-09-18T03:08:14;20.60;99.90
23124;DHT22;11731;48.592;8.858;2023-09-18T03:10:41;20.80;99.90
23124;DHT22;11731;48.592;8.858;2023-09-18T03:13:09;20.80;99.90
23124;DHT22;11731;48.592;8.858;2023-09-18T03:15:37;21.00;99.90
23124;DHT22;11731;48.592;8.858;2023-09-18T03:18:05;20.80;99.90
23124;DHT22;11731;48.592;8.858;2023-09-18T03:20:32;20.30;99.90
23124;DHT22;11731;48.592;8.858;2023-09-18T03:23:00;19.90;99.90
23124;DHT22;11731;48.592;8.858;2023-09-18T03:25:29;19.70;99.90
23124;DHT22;11731;48.592;8.858;2023-09-18T03:27:57;19.70;99.90
23124;DHT22;11731;48.592;8.858;2023-09-18T03:30:24;19.90;99.90
23124;DHT22;11731;48.592;8.858;2023-09-18T03:32:51;20.00;99.90
23124;DHT22;11731;48.592;8.858;2023-09-18T03:35:19;20.40;99.90
23124;DHT22;11731;48.592;8.858;2023-09-18T03:37:46;20.50;99.90
23124;DHT22;11731;48.592;8.858;2023-09-18T03:40:14;20.40;99.90
23124;DHT22;11731;48.592;8.858;2023-09-18T03:42:42;20.50;99.90
23124;DHT22;11731;48.592;8.858;2023-09-18T03:45:09;20.10;99.90
23124;DHT22;11731;48.592;8.858;2023-09-18T03:47:37;19.70;99.90
23124;DHT22;11731;48.592;8.858;2023-09-18T03:50:05;19.50;99.90
23124;DHT22;11731;48.592;8.858;2023-09-18T03:52:32;19.50;99.90
23124;DHT22;11731;48.592;8.858;2023-09-18T03:54:59;19.40;99.90
23124;DHT22;11731;48.592;8.858;2023-09-18T03:57:26;19.60;99.90
23124;DHT22;11731;48.592;8.858;2023-09-18T03:59:54;19.90;99.90
23124;DHT22;11731;48.592;8.858;2023-09-18T04:02:23;19.90;99.90
23124;DHT22;11731;48.592;8.858;2023-09-18T04:04:50;20.10;99.90
23124;DHT22;11731;48.592;8.858;2023-09-18T04:07:17;20.10;99.90
23124;DHT22;11731;48.592;8.858;2023-09-18T04:09:45;20.20;99.90
23124;DHT22;11731;48.592;8.858;2023-09-18T04:12:12;20.20;99.90
23124;DHT22;11731;48.592;8.858;2023-09-18T04:14:39;20.10;99.90
23124;DHT22;11731;48.592;8.858;2023-09-18T04:17:07;20.10;99.90
23124;DHT22;11731;48.592;8.858;2023-09-18T04:19:34;20.10;99.90
23124;DHT22;11731;48.592;8.858;2023-09-18T04:22:01;19.90;99.90
23124;DHT22;11731;48.592;8.858;2023-09-18T04:24:27;19.70;99.90
23124;DHT22;11731;48.592;8.858;2023-09-18T04:26:54;19.60;99.90
23124;DHT22;11731;48.592;8.858;2023-09-18T04:29:21;19.70;99.90
23124;DHT22;11731;48.592;8.858;2023-09-18T04:31:48;20.00;99.90
23124;DHT22;11731;48.592;8.858;2023-09-18T04:34:16;20.40;99.90
23124;DHT22;11731;48.592;8.858;2023-09-18T04:36:44;20.60;99.90
23124;DHT22;11731;48.592;8.858;2023-09-18T04:39:11;20.60;99.90
23124;DHT22;11731;48.592;8.858;2023-09-18T04:41:39;20.70;99.90
23124;DHT22;11731;48.592;8.858;2023-09-18T04:44:06;20.60;99.90
23124;DHT22;11731;48.592;8.858;2023-09-18T04:46:33;20.90;99.90
23124;DHT22;11731;48.592;8.858;2023-09-18T04:49:00;21.00;99.90
23124;DHT22;11731;48.592;8.858;2023-09-18T04:51:30;21.10;99.90
23124;DHT22;11731;48.592;8.858;2023-09-18T04:53:58;21.20;99.90
23124;DHT22;11731;48.592;8.858;2023-09-18T04:56:25;21.20;99.90
23124;DHT22;11731;48.592;8.858;2023-09-18T04:58:52;20.80;99.90
23124;DHT22;11731;48.592;8.858;2023-09-18T05:01:19;20.60;99.90
23124;DHT22;11731;48.592;8.858;2023-09-18T05:03:46;20.70;99.90
23124;DHT22;11731;48.592;8.858;2023-09-18T05:06:14;20.40;99.90
23124;DHT22;11731;48.592;8.858;2023-09-18T05:08:43;20.40;99.90
23124;DHT22;11731;48.592;8.858;2023-09-18T05:11:10;20.50;99.90
23124;DHT22;11731;48.592;8.858;2023-09-18T05:13:37;20.30;99.90
23124;DHT22;11731;48.592;8.858;2023-09-18T05:16:04;20.30;99.90
23124;DHT22;11731;48.592;8.858;2023-09-18T05:18:31;20.50;99.90
23124;DHT22;11731;48.592;8.858;2023-09-18T05:20:58;20.60;99.90
23124;DHT22;11731;48.592;8.858;2023-09-18T05:23:25;20.60;99.90
23124;DHT22;11731;48.592;8.858;2023-09-18T05:25:54;20.80;99.90
23124;DHT22;11731;48.592;8.858;2023-09-18T05:28:20;21.00;99.90
23124;DHT22;11731;48.592;8.858;2023-09-18T05:30:47;21.10;99.90
23124;DHT22;11731;48.592;8.858;2023-09-18T05:33:14;21.20;99.90
23124;DHT22;11731;48.592;8.858;2023-09-18T05:35:43;21.40;99.90
23124;DHT22;11731;48.592;8.858;2023-09-18T05:38:11;21.50;99.90
23124;DHT22;11731;48.592;8.858;2023-09-18T05:40:39;21.50;99.90
23124;DHT22;11731;48.592;8.858;2023-09-18T05:43:07;21.60;99.90
23124;DHT22;11731;48.592;8.858;2023-09-18T05:45:35;21.60;99.90
23124;DHT22;11731;48.592;8.858;2023-09-18T05:48:03;21.60;99.90
23124;DHT22;11731;48.592;8.858;2023-09-18T05:50:30;21.70;99.90
23124;DHT22;11731;48.592;8.858;2023-09-18T05:52:58;21.30;99.90
23124;DHT22;11731;48.592;8.858;2023-09-18T05:55:26;21.20;99.90
23124;DHT22;11731;48.592;8.858;2023-09-18T05:57:53;21.50;99.90
23124;DHT22;11731;48.592;8.858;2023-09-18T06:00:22;21.30;99.90
23124;DHT22;11731;48.592;8.858;2023-09-18T06:02:49;20.60;99.90
23124;DHT22;11731;48.592;8.858;2023-09-18T06:05:17;20.50;99.90
23124;DHT22;11731;48.592;8.858;2023-09-18T06:07:46;20.60;99.90
23124;DHT22;11731;48.592;8.858;2023-09-18T06:10:13;20.90;99.90
23124;DHT22;11731;48.592;8.858;2023-09-18T06:12:40;21.20;99.90
23124;DHT22;11731;48.592;8.858;2023-09-18T06:15:09;20.90;99.90
23124;DHT22;11731;48.592;8.858;2023-09-18T06:17:38;20.70;99.90
23124;DHT22;11731;48.592;8.858;2023-09-18T06:20:06;20.70;99.90
23124;DHT22;11731;48.592;8.858;2023-09-18T06:22:35;20.70;99.90
23124;DHT22;11731;48.592;8.858;2023-09-18T06:25:02;20.80;99.90
23124;DHT22;11731;48.592;8.858;2023-09-18T06:27:29;20.90;99.90
23124;DHT22;11731;48.592;8.858;2023-09-18T06:29:57;21.10;99.90
23124;DHT22;11731;48.592;8.858;2023-09-18T06:32:24;21.30;99.90
23124;DHT22;11731;48.592;8.858;2023-09-18T06:34:52;21.50;99.90
23124;DHT22;11731;48.592;8.858;2023-09-18T06:37:19;21.50;99.90
23124;DHT22;11731;48.592;8.858;2023-09-18T06:39:46;21.70;99.90
23124;DHT22;11731;48.592;8.858;2023-09-18T06:42:13;21.70;99.90
23124;DHT22;11731;48.592;8.858;2023-09-18T06:44:40;21.50;99.90
23124;DHT22;11731;48.592;8.858;2023-09-18T06:47:07;21.20;99.90
23124;DHT22;11731;48.592;8.858;2023-09-18T06:49:34;21.10;99.90
23124;DHT22;11731;48.592;8.858;2023-09-18T06:52:02;20.40;99.90
23124;DHT22;11731;48.592;8.858;2023-09-18T06:54:30;20.20;99.90
23124;DHT22;11731;48.592;8.858;2023-09-18T06:56:57;20.40;99.90
23124;DHT22;11731;48.592;8.858;2023-09-18T06:59:24;20.60;99.90
23124;DHT22;11731;48.592;8.858;2023-09-18T07:01:50;21.00;99.90
23124;DHT22;11731;48.592;8.858;2023-09-18T07:04:17;21.20;99.90
23124;DHT22;11731;48.592;8.858;2023-09-18T07:06:44;21.20;99.90
23124;DHT22;11731;48.592;8.858;2023-09-18T07:09:13;21.20;99.90
23124;DHT22;11731;48.592;8.858;2023-09-18T07:11:40;21.20;99.90
23124;DHT22;11731;48.592;8.858;2023-09-18T07:14:07;21.60;99.90
23124;DHT22;11731;48.592;8.858;2023-09-18T07:16:34;21.50;99.90
23124;DHT22;11731;48.592;8.858;2023-09-18T07:19:01;21.20;99.90
23124;DHT22;11731;48.592;8.858;2023-09-18T07:21:30;20.40;99.90
23124;DHT22;11731;48.592;8.858;2023-09-18T07:23:56;19.90;99.90
23124;DHT22;11731;48.592;8.858;2023-09-18T07:26:25;20.00;99.90
23124;DHT22;11731;48.592;8.858;2023-09-18T07:28:51;19.90;99.90
23124;DHT22;11731;48.592;8.858;2023-09-18T07:31:18;19.80;99.90
23124;DHT22;11731;48.592;8.858;2023-09-18T07:33:45;19.70;99.90
23124;DHT22;11731;48.592;8.858;2023-09-18T07:36:12;19.80;99.90
23124;DHT22;11731;48.592;8.858;2023-09-18T07:38:40;20.00;99.90
23124;DHT22;11731;48.592;8.858;2023-09-18T07:41:08;20.20;99.90
23124;DHT22;11731;48.592;8.858;2023-09-18T07:43:37;20.30;99.90
23124;DHT22;11731;48.592;8.858;2023-09-18T07:46:05;20.30;99.90
23124;DHT22;11731;48.592;8.858;2023-09-18T07:48:32;20.60;99.90
23124;DHT22;11731;48.592;8.858;2023-09-18T07:50:59;21.00;99.90
23124;DHT22;11731;48.592;8.858;2023-09-18T07:53:26;20.80;99.90
23124;DHT22;11731;48.592;8.858;2023-09-18T07:55:56;20.60;99.90
23124;DHT22;11731;48.592;8.858;2023-09-18T07:58:24;20.60;99.90
23124;DHT22;11731;48.592;8.858;2023-09-18T08:00:55;20.30;99.90
23124;DHT22;11731;48.592;8.858;2023-09-18T08:03:22;20.30;99.90
23124;DHT22;11731;48.592;8.858;2023-09-18T08:05:50;20.10;99.90
23124;DHT22;11731;48.592;8.858;2023-09-18T08:08:19;19.90;99.90
23124;DHT22;11731;48.592;8.858;2023-09-18T08:10:47;20.00;99.90
23124;DHT22;11731;48.592;8.858;2023-09-18T08:13:14;20.00;99.90
23124;DHT22;11731;48.592;8.858;2023-09-18T08:15:41;20.10;99.90
23124;DHT22;11731;48.592;8.858;2023-09-18T08:18:10;19.80;99.90
23124;DHT22;11731;48.592;8.858;2023-09-18T08:20:40;19.80;99.90
23124;DHT22;11731;48.592;8.858;2023-09-18T08:23:08;19.50;99.90
23124;DHT22;11731;48.592;8.858;2023-09-18T08:25:35;19.50;99.90
23124;DHT22;11731;48.592;8.858;2023-09-18T08:28:02;19.50;99.90
23124;DHT22;11731;48.592;8.858;2023-09-18T08:30:30;19.70;99.90
23124;DHT22;11731;48.592;8.858;2023-09-18T08:32:57;20.10;99.90
23124;DHT22;11731;48.592;8.858;2023-09-18T08:35:25;20.20;99.90
23124;DHT22;11731;48.592;8.858;2023-09-18T08:37:54;20.10;99.90
23124;DHT22;11731;48.592;8.858;2023-09-18T08:40:22;20.20;99.90
23124;DHT22;11731;48.592;8.858;2023-09-18T08:42:52;20.40;99.90
23124;DHT22;11731;48.592;8.858;2023-09-18T08:45:26;20.70;99.90
23124;DHT22;11731;48.592;8.858;2023-09-18T08:47:54;20.60;99.90
23124;DHT22;11731;48.592;8.858;2023-09-18T08:50:21;20.50;99.90
23124;DHT22;11731;48.592;8.858;2023-09-18T08:52:50;20.40;99.90
23124;DHT22;11731;48.592;8.858;2023-09-18T08:55:18;20.50;99.90
23124;DHT22;11731;48.592;8.858;2023-09-18T08:57:46;20.30;99.90
23124;DHT22;11731;48.592;8.858;2023-09-18T09:00:14;19.80;99.90
23124;DHT22;11731;48.592;8.858;2023-09-18T09:02:43;19.60;99.90
23124;DHT22;11731;48.592;8.858;2023-09-18T09:05:10;19.80;99.90
23124;DHT22;11731;48.592;8.858;2023-09-18T09:07:37;20.10;99.90
23124;DHT22;11731;48.592;8.858;2023-09-18T09:10:06;20.50;99.90
23124;DHT22;11731;48.592;8.858;2023-09-18T09:12:51;20.80;99.90
23124;DHT22;11731;48.592;8.858;2023-09-18T09:15:19;21.20;99.90
23124;DHT22;11731;48.592;8.858;2023-09-18T09:17:46;21.10;99.90
23124;DHT22;11731;48.592;8.858;2023-09-18T09:20:14;21.10;99.90
23124;DHT22;11731;48.592;8.858;2023-09-18T09:22:42;21.40;99.90
23124;DHT22;11731;48.592;8.858;2023-09-18T09:25:26;21.60;99.90
23124;DHT22;11731;48.592;8.858;2023-09-18T09:27:54;21.90;99.90
23124;DHT22;11731;48.592;8.858;2023-09-18T09:30:23;21.90;99.90
23124;DHT22;11731;48.592;8.858;2023-09-18T09:32:52;21.20;99.90
23124;DHT22;11731;48.592;8.858;2023-09-18T09:35:23;21.00;99.90
23124;DHT22;11731;48.592;8.858;2023-09-18T09:37:54;21.10;99.90
23124;DHT22;11731;48.592;8.858;2023-09-18T09:40:23;21.00;99.90
23124;DHT22;11731;48.592;8.858;2023-09-18T09:42:56;21.10;99.90
23124;DHT22;11731;48.592;8.858;2023-09-18T09:45:27;21.30;99.90
23124;DHT22;11731;48.592;8.858;2023-09-18T09:48:02;21.20;99.90
23124;DHT22;11731;48.592;8.858;2023-09-18T09:50:30;21.30;99.90
23124;DHT22;11731;48.592;8.858;2023-09-18T09:52:58;21.30;99.90
23124;DHT22;11731;48.592;8.858;2023-09-18T09:55:26;21.60;99.90
23124;DHT22;11731;48.592;8.858;2023-09-18T09:57:56;22.00;99.90
23124;DHT22;11731;48.592;8.858;2023-09-18T10:00:26;21.90;99.90
23124;DHT22;11731;48.592;8.858;2023-09-18T10:02:58;22.10;99.90
23124;DHT22;11731;48.592;8.858;2023-09-18T10:05:30;22.10;99.90
23124;DHT22;11731;48.592;8.858;2023-09-18T10:07:59;21.90;99.90
23124;DHT22;11731;48.592;8.858;2023-09-18T10:10:31;21.00;99.90
23124;DHT22;11731;48.592;8.858;2023-09-18T10:13:05;20.40;99.90
23124;DHT22;11731;48.592;8.858;2023-09-18T10:15:35;20.40;99.90
23124;DHT22;11731;48.592;8.858;2023-09-18T10:18:10;20.40;99.90
23124;DHT22;11731;48.592;8.858;2023-09-18T10:20:44;20.30;99.90
23124;DHT22;11731;48.592;8.858;2023-09-18T10:23:20;20.10;99.90
23124;DHT22;11731;48.592;8.858;2023-09-18T10:25:54;20.40;99.90
23124;DHT22;11731;48.592;8.858;2023-09-18T10:28:24;20.70;99.90
23124;DHT22;11731;48.592;8.858;2023-09-18T10:30:56;20.50;99.90
23124;DHT22;11731;48.592;8.858;2023-09-18T10:33:23;20.20;99.90
23124;DHT22;11731;48.592;8.858;2023-09-18T10:35:52;20.30;99.90
23124;DHT22;11731;48.592;8.858;2023-09-18T10:38:20;20.30;99.90
23124;DHT22;11731;48.592;8.858;2023-09-18T10:40:50;20.30;99.90
23124;DHT22;11731;48.592;8.858;2023-09-18T10:43:18;20.60;99.90
23124;DHT22;11731;48.592;8.858;2023-09-18T10:45:46;21.10;99.90
23124;DHT22;11731;48.592;8.858;2023-09-18T10:48:14;21.10;99.90
23124;DHT22;11731;48.592;8.858;2023-09-18T10:50:42;21.40;99.90
23124;DHT22;11731;48.592;8.858;2023-09-18T10:53:11;21.60;99.90
23124;DHT22;11731;48.592;8.858;2023-09-18T10:55:38;21.50;99.90
23124;DHT22;11731;48.592;8.858;2023-09-18T10:58:06;21.20;99.90
23124;DHT22;11731;48.592;8.858;2023-09-18T11:00:33;20.80;99.90
23124;DHT22;11731;48.592;8.858;2023-09-18T11:03:13;20.80;99.90
23124;DHT22;11731;48.592;8.858;2023-09-18T11:05:44;21.00;99.90
23124;DHT22;11731;48.592;8.858;2023-09-18T11:08:28;21.30;99.90
23124;DHT22;11731;48.592;8.858;2023-09-18T11:11:00;20.80;99.90
23124;DHT22;11731;48.592;8.858;2023-09-18T11:13:30;20.60;99.90
23124;DHT22;11731;48.592;8.858;2023-09-18T11:16:02;20.20;99.90
23124;DHT22;11731;48.592;8.858;2023-09-18T11:18:41;20.00;99.90
23124;DHT22;11731;48.592;8.858;2023-09-18T11:21:09;19.90;99.90
23124;DHT22;11731;48.592;8.858;2023-09-18T11:23:38;20.10;99.90
23124;DHT22;11731;48.592;8.858;2023-09-18T11:26:09;20.40;99.90
23124;DHT22;11731;48.592;8.858;2023-09-18T11:28:37;20.50;99.90
23124;DHT22;11731;48.592;8.858;2023-09-18T11:31:04;20.90;99.90
23124;DHT22;11731;48.592;8.858;2023-09-18T11:33:33;20.70;99.90
23124;DHT22;11731;48.592;8.858;2023-09-18T11:36:06;20.50;99.90
23124;DHT22;11731;48.592;8.858;2023-09-18T11:38:34;20.30;99.90
23124;DHT22;11731;48.592;8.858;2023-09-18T11:41:20;20.50;99.90
23124;DHT22;11731;48.592;8.858;2023-09-18T11:43:47;20.60;99.90
23124;DHT22;11731;48.592;8.858;2023-09-18T11:46:18;20.40;99.90
23124;DHT22;11731;48.592;8.858;2023-09-18T11:48:47;20.20;99.90
23124;DHT22;11731;48.592;8.858;2023-09-18T11:51:23;20.00;99.90
23124;DHT22;11731;48.592;8.858;2023-09-18T11:53:54;20.20;99.90
23124;DHT22;11731;48.592;8.858;2023-09-18T11:56:22;20.30;99.90
23124;DHT22;11731;48.592;8.858;2023-09-18T11:58:50;20.30;99.90
23124;DHT22;11731;48.592;8.858;2023-09-18T12:01:20;20.20;99.90
23124;DHT22;11731;48.592;8.858;2023-09-18T12:03:58;20.30;99.90
23124;DHT22;11731;48.592;8.858;2023-09-18T12:06:28;20.40;99.90
23124;DHT22;11731;48.592;8.858;2023-09-18T12:08:56;20.30;99.90
23124;DHT22;11731;48.592;8.858;2023-09-18T12:11:24;20.30;99.90
23124;DHT22;11731;48.592;8.858;2023-09-18T12:13:52;20.40;99.90
23124;DHT22;11731;48.592;8.858;2023-09-18T12:16:24;20.40;99.90
23124;DHT22;11731;48.592;8.858;2023-09-18T12:18:52;20.20;99.90
23124;DHT22;11731;48.592;8.858;2023-09-18T12:21:23;20.30;99.90
23124;DHT22;11731;48.592;8.858;2023-09-18T12:23:52;20.60;99.90
23124;DHT22;11731;48.592;8.858;2023-09-18T12:26:19;21.00;99.90
23124;DHT22;11731;48.592;8.858;2023-09-18T12:28:46;21.20;99.90
23124;DHT22;11731;48.592;8.858;2023-09-18T12:31:15;21.20;99.90
23124;DHT22;11731;48.592;8.858;2023-09-18T12:33:43;21.50;99.90
23124;DHT22;11731;48.592;8.858;2023-09-18T12:36:18;21.40;99.90
23124;DHT22;11731;48.592;8.858;2023-09-18T12:38:57;21.10;99.90
23124;DHT22;11731;48.592;8.858;2023-09-18T12:41:25;21.00;99.90
23124;DHT22;11731;48.592;8.858;2023-09-18T12:43:53;21.10;99.90
23124;DHT22;11731;48.592;8.858;2023-09-18T12:46:21;21.20;99.90
23124;DHT22;11731;48.592;8.858;2023-09-18T12:48:49;21.30;99.90
23124;DHT22;11731;48.592;8.858;2023-09-18T12:51:17;21.60;99.90
23124;DHT22;11731;48.592;8.858;2023-09-18T12:53:58;21.90;99.90
23124;DHT22;11731;48.592;8.858;2023-09-18T12:56:26;22.00;99.90
23124;DHT22;11731;48.592;8.858;2023-09-18T12:58:57;22.20;99.90
23124;DHT22;11731;48.592;8.858;2023-09-18T13:01:24;21.80;99.90
23124;DHT22;11731;48.592;8.858;2023-09-18T13:03:54;21.90;99.90
23124;DHT22;11731;48.592;8.858;2023-09-18T13:06:21;21.90;99.90
23124;DHT22;11731;48.592;8.858;2023-09-18T13:08:49;21.80;99.90
23124;DHT22;11731;48.592;8.858;2023-09-18T13:11:18;21.80;99.90
23124;DHT22;11731;48.592;8.858;2023-09-18T13:13:57;21.80;99.90
23124;DHT22;11731;48.592;8.858;2023-09-18T13:16:24;22.10;99.90
23124;DHT22;11731;48.592;8.858;2023-09-18T13:18:51;22.30;99.90
23124;DHT22;11731;48.592;8.858;2023-09-18T13:21:18;22.00;99.90
23124;DHT22;11731;48.592;8.858;2023-09-18T13:23:45;22.30;99.90
23124;DHT22;11731;48.592;8.858;2023-09-18T13:26:12;22.50;99.90
23124;DHT22;11731;48.592;8.858;2023-09-18T13:28:39;22.30;99.90
23124;DHT22;11731;48.592;8.858;2023-09-18T13:31:10;22.10;99.90
23124;DHT22;11731;48.592;8.858;2023-09-18T13:33:40;22.10;99.90
23124;DHT22;11731;48.592;8.858;2023-09-18T13:36:09;22.00;99.90
23124;DHT22;11731;48.592;8.858;2023-09-18T13:38:37;22.10;99.90
23124;DHT22;11731;48.592;8.858;2023-09-18T13:41:04;22.20;99.90
23124;DHT22;11731;48.592;8.858;2023-09-18T13:43:31;22.20;99.90
23124;DHT22;11731;48.592;8.858;2023-09-18T13:46:00;22.00;99.90
23124;DHT22;11731;48.592;8.858;2023-09-18T13:48:31;22.00;99.90
23124;DHT22;11731;48.592;8.858;2023-09-18T13:50:59;21.80;99.90
23124;DHT22;11731;48.592;8.858;2023-09-18T13:53:27;21.70;99.90
23124;DHT22;11731;48.592;8.858;2023-09-18T13:55:55;21.70;99.90
23124;DHT22;11731;48.592;8.858;2023-09-18T13:58:22;21.70;99.90
23124;DHT22;11731;48.592;8.858;2023-09-18T14:00:49;22.00;99.90
23124;DHT22;11731;48.592;8.858;2023-09-18T14:03:16;22.00;99.90
23124;DHT22;11731;48.592;8.858;2023-09-18T14:05:45;22.00;99.90
23124;DHT22;11731;48.592;8.858;2023-09-18T14:08:12;22.20;99.90
23124;DHT22;11731;48.592;8.858;2023-09-18T14:10:39;22.20;99.90
23124;DHT22;11731;48.592;8.858;2023-09-18T14:13:05;22.00;99.90
23124;DHT22;11731;48.592;8.858;2023-09-18T14:15:33;22.00;99.90
23124;DHT22;11731;48.592;8.858;2023-09-18T14:17:59;22.00;99.90
23124;DHT22;11731;48.592;8.858;2023-09-18T14:20:26;21.80;99.90
23124;DHT22;11731;48.592;8.858;2023-09-18T14:22:55;22.00;99.90
23124;DHT22;11731;48.592;8.858;2023-09-18T14:25:22;22.00;99.90
23124;DHT22;11731;48.592;8.858;2023-09-18T14:27:49;22.20;99.90
23124;DHT22;11731;48.592;8.858;2023-09-18T14:30:15;22.30;99.90
23124;DHT22;11731;48.592;8.858;2023-09-18T14:32:44;22.50;99.90
23124;DHT22;11731;48.592;8.858;2023-09-18T14:35:11;22.60;99.90
23124;DHT22;11731;48.592;8.858;2023-09-18T14:37:39;22.70;99.90
23124;DHT22;11731;48.592;8.858;2023-09-18T14:40:08;23.00;99.90
23124;DHT22;11731;48.592;8.858;2023-09-18T14:42:37;23.00;99.90
23124;DHT22;11731;48.592;8.858;2023-09-18T14:45:04;23.00;99.90
23124;DHT22;11731;48.592;8.858;2023-09-18T14:47:32;22.90;99.90
23124;DHT22;11731;48.592;8.858;2023-09-18T14:49:59;22.70;99.90
23124;DHT22;11731;48.592;8.858;2023-09-18T14:52:27;22.50;99.90
23124;DHT22;11731;48.592;8.858;2023-09-18T14:54:54;22.50;99.90
23124;DHT22;11731;48.592;8.858;2023-09-18T14:57:22;22.30;99.90
23124;DHT22;11731;48.592;8.858;2023-09-18T14:59:49;22.40;99.90
23124;DHT22;11731;48.592;8.858;2023-09-18T15:02:16;22.50;99.90
23124;DHT22;11731;48.592;8.858;2023-09-18T15:04:43;22.70;99.90
23124;DHT22;11731;48.592;8.858;2023-09-18T15:07:10;22.60;99.90
23124;DHT22;11731;48.592;8.858;2023-09-18T15:09:37;22.50;99.90
23124;DHT22;11731;48.592;8.858;2023-09-18T15:12:04;22.40;99.90
23124;DHT22;11731;48.592;8.858;2023-09-18T15:14:34;22.50;99.90
23124;DHT22;11731;48.592;8.858;2023-09-18T15:17:01;22.30;99.90
23124;DHT22;11731;48.592;8.858;2023-09-18T15:19:28;22.30;99.90
23124;DHT22;11731;48.592;8.858;2023-09-18T15:21:57;22.70;99.90
23124;DHT22;11731;48.592;8.858;2023-09-18T15:24:24;22.80;99.90
23124;DHT22;11731;48.592;8.858;2023-09-18T15:26:55;23.00;99.90
23124;DHT22;11731;48.592;8.858;2023-09-18T15:29:22;23.00;99.90
23124;DHT22;11731;48.592;8.858;2023-09-18T15:31:53;22.50;99.90
23124;DHT22;11731;48.592;8.858;2023-09-18T15:34:20;22.00;99.90
23124;DHT22;11731;48.592;8.858;2023-09-18T15:36:47;21.80;99.90